Portada
METAR-TAF:

METAR-TAF

Aeroports :

Cuiabá, Mato Grosso, Brasil

latitud: 15-39S, longitud: 056-06W, altitud: 187 m

Observació

L'informe es va fer fa 1 hora i 1 minuts, a les 21:00 UTC
Vent 2 kt del Est
Temperatura 34°C
Humitat 25%
Pressió 1012 hPa
Visibilitat 10 km o més
sense núvols per sota de 1500 mi sense presència de cumulonimbus.

METAR: SBCY 242100Z 08002KT CAVOK 34/11 Q1012

Hora: 18:01 (22:01 UTC)

Pronòstic

L'informe es va fer fa 7 hores i 1 minuts, a les 15:00 UTC
Pronòstic vàlid del 24 a les 18 UTC al 25 a les 18 UTC
Vent 5 kt del Est/Nord-Est
Visibilitat 10 km o més
sense núvols per sota de 1500 mi sense presència de cumulonimbus.
Evolucionant progressivament
l' 25 a les 06 UTC al 25 a les 08 UTC
Vent 5 kt del Nord-Oest
Evolucionant progressivament
l' 25 a les 14 UTC al 25 a les 16 UTC
Vent 5 kt del Nord/Nord-Est

TAF: SBCY 241500Z 2418/2518 06005KT CAVOK TX37/2419Z TN22/2510Z BECMG 2506/2508 31005KT BECMG 2514/2516 02005KT RMK PFV

Observacions i pronòstics meteorològics de més de 4000 aeroports (METAR i TAF).

Les estacions disponibles són els punts grocs i vermells al mapa.

Posi el ratolí al punt desitjat per veure el nom de l'estació.

Feu clic per veure les observacions i els pronòstics meteorològics.

Per canviar el mapa: feu clic els botons verds amb una creu de color negre per apropar; al botó verd amb un guió per allunyar la imatge; o en les fletxes verdes per a mapes adjacents.


METAR-TAF: